sensor_id;sensor_type;location;lat;lon;timestamp;pressure;altitude;pressure_sealevel;temperature;humidity
54503;BME280;40411;50.090;21.954;2024-01-15T00:02:05;65548.69;;;5.23;61.51
54503;BME280;40411;50.090;21.954;2024-01-15T00:04:39;65540.38;;;5.06;61.82
54503;BME280;40411;50.090;21.954;2024-01-15T00:07:05;65538.69;;;5.04;61.98
54503;BME280;40411;50.090;21.954;2024-01-15T00:09:31;65587.47;;;4.95;61.97
54503;BME280;40411;50.090;21.954;2024-01-15T00:11:58;65538.75;;;5.32;61.45
54503;BME280;40411;50.090;21.954;2024-01-15T00:14:24;65538.03;;;4.76;62.52
54503;BME280;40411;50.090;21.954;2024-01-15T00:16:50;65528.94;;;5.33;60.72
54503;BME280;40411;50.090;21.954;2024-01-15T00:19:17;65567.31;;;5.72;59.69
54503;BME280;40411;50.090;21.954;2024-01-15T00:21:44;65569.16;;;5.36;60.51
54503;BME280;40411;50.090;21.954;2024-01-15T00:24:10;65537.88;;;5.46;60.03
54503;BME280;40411;50.090;21.954;2024-01-15T00:26:36;65544.97;;;5.38;59.87
54503;BME280;40411;50.090;21.954;2024-01-15T00:29:02;65539.13;;;5.70;59.90
54503;BME280;40411;50.090;21.954;2024-01-15T00:31:29;65525.75;;;5.49;59.52
54503;BME280;40411;50.090;21.954;2024-01-15T00:33:56;65517.69;;;5.18;60.75
54503;BME280;40411;50.090;21.954;2024-01-15T00:36:22;65574.94;;;5.04;61.55
54503;BME280;40411;50.090;21.954;2024-01-15T00:38:47;65562.78;;;4.75;61.73
54503;BME280;40411;50.090;21.954;2024-01-15T00:41:14;65552.22;;;5.49;60.25
54503;BME280;40411;50.090;21.954;2024-01-15T00:43:40;65530.31;;;5.20;60.92
54503;BME280;40411;50.090;21.954;2024-01-15T00:46:06;65562.56;;;4.88;61.76
54503;BME280;40411;50.090;21.954;2024-01-15T00:48:32;65558.81;;;5.20;61.08
54503;BME280;40411;50.090;21.954;2024-01-15T00:50:58;65521.25;;;5.28;60.14
54503;BME280;40411;50.090;21.954;2024-01-15T00:53:25;65562.22;;;4.58;61.54
54503;BME280;40411;50.090;21.954;2024-01-15T00:55:51;65537.31;;;5.01;61.47
54503;BME280;40411;50.090;21.954;2024-01-15T00:58:18;65525.16;;;5.20;60.93
54503;BME280;40411;50.090;21.954;2024-01-15T01:00:44;65551.38;;;4.69;62.37
54503;BME280;40411;50.090;21.954;2024-01-15T01:03:09;65558.16;;;4.59;62.37
54503;BME280;40411;50.090;21.954;2024-01-15T01:05:36;65575.06;;;4.79;62.00
54503;BME280;40411;50.090;21.954;2024-01-15T01:08:01;65555.97;;;5.34;60.09
54503;BME280;40411;50.090;21.954;2024-01-15T01:10:27;65535.53;;;5.04;60.77
54503;BME280;40411;50.090;21.954;2024-01-15T01:12:53;65530.63;;;4.74;61.95
54503;BME280;40411;50.090;21.954;2024-01-15T01:15:19;65551.53;;;4.76;61.32
54503;BME280;40411;50.090;21.954;2024-01-15T01:17:45;65523.31;;;5.56;59.39
54503;BME280;40411;50.090;21.954;2024-01-15T01:20:12;65570.94;;;4.84;60.83
54503;BME280;40411;50.090;21.954;2024-01-15T01:22:39;65567.69;;;4.39;62.42
54503;BME280;40411;50.090;21.954;2024-01-15T01:25:05;65561.34;;;4.92;61.14
54503;BME280;40411;50.090;21.954;2024-01-15T01:27:31;65577.19;;;4.74;61.79
54503;BME280;40411;50.090;21.954;2024-01-15T01:29:57;65577.41;;;4.76;61.35
54503;BME280;40411;50.090;21.954;2024-01-15T01:32:23;65562.22;;;4.58;61.77
54503;BME280;40411;50.090;21.954;2024-01-15T01:34:49;65544.19;;;4.69;62.17
54503;BME280;40411;50.090;21.954;2024-01-15T01:37:14;65542.81;;;4.66;62.17
54503;BME280;40411;50.090;21.954;2024-01-15T01:39:41;65553.63;;;5.04;60.23
54503;BME280;40411;50.090;21.954;2024-01-15T01:42:08;65549.88;;;5.52;59.38
54503;BME280;40411;50.090;21.954;2024-01-15T01:44:34;65557.63;;;5.07;60.50
54503;BME280;40411;50.090;21.954;2024-01-15T01:47:00;65521.41;;;5.35;58.65
54503;BME280;40411;50.090;21.954;2024-01-15T01:49:27;65573.41;;;5.10;59.53
54503;BME280;40411;50.090;21.954;2024-01-15T01:51:57;65555.22;;;5.43;58.85
54503;BME280;40411;50.090;21.954;2024-01-15T01:54:24;65545.72;;;4.97;60.33
54503;BME280;40411;50.090;21.954;2024-01-15T01:56:51;65562.38;;;4.98;60.15
54503;BME280;40411;50.090;21.954;2024-01-15T01:59:17;65527.94;;;5.83;57.73
54503;BME280;40411;50.090;21.954;2024-01-15T02:01:44;65555.72;;;5.31;58.94
54503;BME280;40411;50.090;21.954;2024-01-15T02:04:11;65596.59;;;5.14;59.45
54503;BME280;40411;50.090;21.954;2024-01-15T02:06:37;65570.16;;;4.81;60.36
54503;BME280;40411;50.090;21.954;2024-01-15T02:09:03;65539.09;;;4.81;60.83
54503;BME280;40411;50.090;21.954;2024-01-15T02:11:31;65549.44;;;4.98;59.78
54503;BME280;40411;50.090;21.954;2024-01-15T02:13:57;65568.28;;;5.22;59.47
54503;BME280;40411;50.090;21.954;2024-01-15T02:16:22;65534.84;;;5.41;58.04
54503;BME280;40411;50.090;21.954;2024-01-15T02:18:48;65560.13;;;5.56;57.59
54503;BME280;40411;50.090;21.954;2024-01-15T02:21:14;65583.75;;;4.93;59.47
54503;BME280;40411;50.090;21.954;2024-01-15T02:23:40;65584.69;;;4.87;59.97
54503;BME280;40411;50.090;21.954;2024-01-15T02:26:06;65532.13;;;5.17;59.78
54503;BME280;40411;50.090;21.954;2024-01-15T02:28:34;65527.13;;;4.91;60.17
54503;BME280;40411;50.090;21.954;2024-01-15T02:31:02;65566.34;;;5.01;59.45
54503;BME280;40411;50.090;21.954;2024-01-15T02:33:28;65571.63;;;4.97;60.65
54503;BME280;40411;50.090;21.954;2024-01-15T02:35:54;65579.38;;;4.97;59.95
54503;BME280;40411;50.090;21.954;2024-01-15T02:38:20;65555.91;;;4.89;60.12
54503;BME280;40411;50.090;21.954;2024-01-15T02:40:46;65568.38;;;5.01;60.00
54503;BME280;40411;50.090;21.954;2024-01-15T02:43:12;65540.47;;;5.01;60.56
54503;BME280;40411;50.090;21.954;2024-01-15T02:45:39;65559.66;;;4.74;60.10
54503;BME280;40411;50.090;21.954;2024-01-15T02:48:05;65587.28;;;5.36;59.13
54503;BME280;40411;50.090;21.954;2024-01-15T02:50:31;65583.97;;;5.12;59.99
54503;BME280;40411;50.090;21.954;2024-01-15T02:52:57;65557.19;;;5.14;59.47
54503;BME280;40411;50.090;21.954;2024-01-15T02:55:22;65563.84;;;5.13;59.38
54503;BME280;40411;50.090;21.954;2024-01-15T02:57:48;65552.59;;;5.14;59.13
54503;BME280;40411;50.090;21.954;2024-01-15T03:00:14;65560.69;;;4.63;60.57
54503;BME280;40411;50.090;21.954;2024-01-15T03:02:41;65536.09;;;5.49;58.51
54503;BME280;40411;50.090;21.954;2024-01-15T03:05:09;65572.97;;;5.00;60.12
54503;BME280;40411;50.090;21.954;2024-01-15T03:07:36;65609.66;;;4.56;61.30
54503;BME280;40411;50.090;21.954;2024-01-15T03:10:02;65557.28;;;4.44;62.19
54503;BME280;40411;50.090;21.954;2024-01-15T03:12:28;65551.88;;;4.90;60.01
54503;BME280;40411;50.090;21.954;2024-01-15T03:14:54;65532.63;;;4.89;59.94
54503;BME280;40411;50.090;21.954;2024-01-15T03:17:20;65547.00;;;5.21;59.26
54503;BME280;40411;50.090;21.954;2024-01-15T03:19:45;65543.63;;;4.85;60.54
54503;BME280;40411;50.090;21.954;2024-01-15T03:22:11;65574.84;;;4.60;60.87
54503;BME280;40411;50.090;21.954;2024-01-15T03:24:37;65553.81;;;4.62;61.03
54503;BME280;40411;50.090;21.954;2024-01-15T03:27:03;65575.50;;;4.72;60.31
54503;BME280;40411;50.090;21.954;2024-01-15T03:29:29;65546.16;;;4.74;59.64
54503;BME280;40411;50.090;21.954;2024-01-15T03:31:55;65604.50;;;4.56;60.88
54503;BME280;40411;50.090;21.954;2024-01-15T03:34:21;65580.81;;;4.63;60.49
54503;BME280;40411;50.090;21.954;2024-01-15T03:36:47;65559.78;;;4.98;59.47
54503;BME280;40411;50.090;21.954;2024-01-15T03:39:12;65550.09;;;4.61;60.90
54503;BME280;40411;50.090;21.954;2024-01-15T03:41:38;65551.97;;;5.02;59.39
54503;BME280;40411;50.090;21.954;2024-01-15T03:44:04;65582.84;;;4.79;59.11
54503;BME280;40411;50.090;21.954;2024-01-15T03:46:30;65571.28;;;4.66;60.01
54503;BME280;40411;50.090;21.954;2024-01-15T03:48:56;65530.59;;;4.90;58.69
54503;BME280;40411;50.090;21.954;2024-01-15T03:51:22;65545.16;;;5.57;57.17
54503;BME280;40411;50.090;21.954;2024-01-15T03:53:48;65581.31;;;5.01;57.71
54503;BME280;40411;50.090;21.954;2024-01-15T03:56:14;65581.72;;;4.94;58.45
54503;BME280;40411;50.090;21.954;2024-01-15T03:58:40;65540.31;;;5.10;58.48
54503;BME280;40411;50.090;21.954;2024-01-15T04:01:09;65568.81;;;5.55;57.29
54503;BME280;40411;50.090;21.954;2024-01-15T04:03:35;65570.72;;;5.75;57.00
54503;BME280;40411;50.090;21.954;2024-01-15T04:06:02;65535.69;;;4.95;59.03
54503;BME280;40411;50.090;21.954;2024-01-15T04:08:28;65585.25;;;5.37;57.18
54503;BME280;40411;50.090;21.954;2024-01-15T04:10:54;65557.69;;;5.03;58.49
54503;BME280;40411;50.090;21.954;2024-01-15T04:13:20;65566.09;;;5.31;56.85
54503;BME280;40411;50.090;21.954;2024-01-15T04:15:46;65565.16;;;5.05;58.08
54503;BME280;40411;50.090;21.954;2024-01-15T04:18:12;65612.38;;;4.31;59.92
54503;BME280;40411;50.090;21.954;2024-01-15T04:20:38;65586.66;;;4.75;58.70
54503;BME280;40411;50.090;21.954;2024-01-15T04:23:04;65586.00;;;4.63;59.31
54503;BME280;40411;50.090;21.954;2024-01-15T04:25:30;65605.41;;;4.71;58.64
54503;BME280;40411;50.090;21.954;2024-01-15T04:27:56;65552.19;;;5.21;57.28
54503;BME280;40411;50.090;21.954;2024-01-15T04:30:22;65548.00;;;4.99;58.11
54503;BME280;40411;50.090;21.954;2024-01-15T04:32:48;65552.59;;;5.14;57.59
54503;BME280;40411;50.090;21.954;2024-01-15T04:35:14;65548.94;;;5.25;57.28
54503;BME280;40411;50.090;21.954;2024-01-15T04:37:40;65588.41;;;4.56;59.20
54503;BME280;40411;50.090;21.954;2024-01-15T04:40:06;65549.91;;;4.54;59.71
54503;BME280;40411;50.090;21.954;2024-01-15T04:42:32;65561.41;;;4.87;59.45
54503;BME280;40411;50.090;21.954;2024-01-15T04:44:59;65580.28;;;4.25;61.58
54503;BME280;40411;50.090;21.954;2024-01-15T04:47:25;65576.63;;;4.89;59.80
54503;BME280;40411;50.090;21.954;2024-01-15T04:49:51;65593.56;;;4.39;60.45
54503;BME280;40411;50.090;21.954;2024-01-15T04:52:17;65553.31;;;4.24;61.54
54503;BME280;40411;50.090;21.954;2024-01-15T04:54:42;65584.75;;;4.50;61.37
54503;BME280;40411;50.090;21.954;2024-01-15T04:57:08;65576.09;;;4.35;61.30
54503;BME280;40411;50.090;21.954;2024-01-15T04:59:34;65584.84;;;4.62;60.48
54503;BME280;40411;50.090;21.954;2024-01-15T05:02:00;65560.44;;;4.77;60.21
54503;BME280;40411;50.090;21.954;2024-01-15T05:04:26;65560.44;;;4.77;59.57
54503;BME280;40411;50.090;21.954;2024-01-15T05:06:53;65559.88;;;4.60;60.19
54503;BME280;40411;50.090;21.954;2024-01-15T05:09:19;65569.28;;;4.13;62.13
54503;BME280;40411;50.090;21.954;2024-01-15T05:11:44;65581.25;;;4.19;61.67
54503;BME280;40411;50.090;21.954;2024-01-15T05:14:10;65547.84;;;4.91;60.03
54503;BME280;40411;50.090;21.954;2024-01-15T05:16:39;65533.59;;;4.83;60.20
54503;BME280;40411;50.090;21.954;2024-01-15T05:19:07;65550.31;;;4.31;61.26
54503;BME280;40411;50.090;21.954;2024-01-15T05:21:33;65596.44;;;4.21;62.10
54503;BME280;40411;50.090;21.954;2024-01-15T05:23:59;65592.88;;;4.27;62.19
54503;BME280;40411;50.090;21.954;2024-01-15T05:26:25;65594.34;;;4.26;62.34
54503;BME280;40411;50.090;21.954;2024-01-15T05:28:51;65602.22;;;4.17;62.69
54503;BME280;40411;50.090;21.954;2024-01-15T05:31:16;65550.72;;;4.24;63.01
54503;BME280;40411;50.090;21.954;2024-01-15T05:33:42;65594.00;;;4.28;62.60
54503;BME280;40411;50.090;21.954;2024-01-15T05:36:08;65570.75;;;4.28;62.10
54503;BME280;40411;50.090;21.954;2024-01-15T05:38:34;65567.16;;;5.04;59.61
54503;BME280;40411;50.090;21.954;2024-01-15T05:41:00;65552.50;;;4.21;61.66
54503;BME280;40411;50.090;21.954;2024-01-15T05:43:26;65548.63;;;4.95;59.35
54503;BME280;40411;50.090;21.954;2024-01-15T05:45:51;65570.88;;;4.73;59.87
54503;BME280;40411;50.090;21.954;2024-01-15T05:48:17;65597.91;;;4.36;61.25
54503;BME280;40411;50.090;21.954;2024-01-15T05:50:43;65527.38;;;4.61;60.16
54503;BME280;40411;50.090;21.954;2024-01-15T05:53:09;65546.53;;;5.16;59.11
54503;BME280;40411;50.090;21.954;2024-01-15T05:55:36;65546.00;;;5.44;57.43
54503;BME280;40411;50.090;21.954;2024-01-15T05:58:04;65547.34;;;5.64;56.94
54503;BME280;40411;50.090;21.954;2024-01-15T06:00:30;65590.06;;;5.27;58.01
54503;BME280;40411;50.090;21.954;2024-01-15T06:03:00;65565.94;;;4.91;58.51
54503;BME280;40411;50.090;21.954;2024-01-15T06:05:26;65556.09;;;4.97;59.16
54503;BME280;40411;50.090;21.954;2024-01-15T06:07:53;65572.91;;;4.88;59.01
54503;BME280;40411;50.090;21.954;2024-01-15T06:10:19;65551.84;;;5.07;59.28
54503;BME280;40411;50.090;21.954;2024-01-15T06:12:45;65558.81;;;4.87;59.34
54503;BME280;40411;50.090;21.954;2024-01-15T06:15:11;65582.34;;;4.41;60.26
54503;BME280;40411;50.090;21.954;2024-01-15T06:17:37;65598.41;;;4.41;61.10
54503;BME280;40411;50.090;21.954;2024-01-15T06:20:03;65617.44;;;4.19;60.95
54503;BME280;40411;50.090;21.954;2024-01-15T06:22:30;65532.13;;;4.19;62.36
54503;BME280;40411;50.090;21.954;2024-01-15T06:24:55;65570.88;;;4.02;62.93
54503;BME280;40411;50.090;21.954;2024-01-15T06:27:23;65545.78;;;5.08;60.26
54503;BME280;40411;50.090;21.954;2024-01-15T06:29:49;65518.78;;;5.07;59.56
54503;BME280;40411;50.090;21.954;2024-01-15T06:32:15;65595.03;;;4.55;61.23
54503;BME280;40411;50.090;21.954;2024-01-15T06:34:40;65559.47;;;4.51;60.85
54503;BME280;40411;50.090;21.954;2024-01-15T06:37:06;65546.28;;;4.64;61.24
54503;BME280;40411;50.090;21.954;2024-01-15T06:39:32;65548.31;;;4.64;60.64
54503;BME280;40411;50.090;21.954;2024-01-15T06:41:58;65535.38;;;4.64;60.64
54503;BME280;40411;50.090;21.954;2024-01-15T06:44:24;65546.09;;;4.24;62.41
54503;BME280;40411;50.090;21.954;2024-01-15T06:46:50;65547.16;;;5.12;59.82
54503;BME280;40411;50.090;21.954;2024-01-15T06:49:17;65521.28;;;5.12;60.01
54503;BME280;40411;50.090;21.954;2024-01-15T06:51:43;65515.22;;;5.13;60.07
54503;BME280;40411;50.090;21.954;2024-01-15T06:54:08;65542.41;;;4.23;61.00
54503;BME280;40411;50.090;21.954;2024-01-15T06:56:35;65513.22;;;4.65;60.64
54503;BME280;40411;50.090;21.954;2024-01-15T06:59:01;65544.94;;;4.77;61.01
54503;BME280;40411;50.090;21.954;2024-01-15T07:01:27;65507.78;;;4.95;59.55
54503;BME280;40411;50.090;21.954;2024-01-15T07:03:52;65579.66;;;4.45;60.69
54503;BME280;40411;50.090;21.954;2024-01-15T07:06:18;65523.88;;;4.96;59.95
54503;BME280;40411;50.090;21.954;2024-01-15T07:08:44;65497.13;;;4.97;59.95
54503;BME280;40411;50.090;21.954;2024-01-15T07:11:10;65534.19;;;5.28;58.17
54503;BME280;40411;50.090;21.954;2024-01-15T07:13:36;65581.78;;;4.57;60.62
54503;BME280;40411;50.090;21.954;2024-01-15T07:16:04;65591.09;;;4.67;59.86
54503;BME280;40411;50.090;21.954;2024-01-15T07:18:30;65557.38;;;4.72;60.40
54503;BME280;40411;50.090;21.954;2024-01-15T07:20:56;65523.63;;;5.09;59.29
54503;BME280;40411;50.090;21.954;2024-01-15T07:23:22;65512.31;;;4.99;59.29
54503;BME280;40411;50.090;21.954;2024-01-15T07:25:48;65538.56;;;5.25;58.76
54503;BME280;40411;50.090;21.954;2024-01-15T07:28:14;65551.84;;;5.07;58.24
54503;BME280;40411;50.090;21.954;2024-01-15T07:30:39;65528.97;;;5.00;59.19
54503;BME280;40411;50.090;21.954;2024-01-15T07:33:05;65520.97;;;4.98;58.63
54503;BME280;40411;50.090;21.954;2024-01-15T07:35:32;65509.47;;;5.13;58.37
54503;BME280;40411;50.090;21.954;2024-01-15T07:37:57;65545.00;;;5.66;56.90
54503;BME280;40411;50.090;21.954;2024-01-15T07:40:23;65538.13;;;5.48;57.37
54503;BME280;40411;50.090;21.954;2024-01-15T07:42:51;65530.16;;;5.29;57.61
54503;BME280;40411;50.090;21.954;2024-01-15T07:45:17;65511.81;;;5.55;56.71
54503;BME280;40411;50.090;21.954;2024-01-15T07:47:43;65539.53;;;5.35;57.74
54503;BME280;40411;50.090;21.954;2024-01-15T07:50:10;65508.50;;;5.03;58.23
54503;BME280;40411;50.090;21.954;2024-01-15T07:52:36;65558.66;;;5.13;58.21
54503;BME280;40411;50.090;21.954;2024-01-15T07:55:02;65534.47;;;5.59;56.73
54503;BME280;40411;50.090;21.954;2024-01-15T07:57:29;65502.31;;;5.25;57.65
54503;BME280;40411;50.090;21.954;2024-01-15T07:59:55;65524.53;;;4.91;58.17
54503;BME280;40411;50.090;21.954;2024-01-15T08:02:20;65544.88;;;5.26;57.34
54503;BME280;40411;50.090;21.954;2024-01-15T08:04:47;65541.16;;;5.25;57.17
54503;BME280;40411;50.090;21.954;2024-01-15T08:07:13;65520.25;;;5.34;56.53
54503;BME280;40411;50.090;21.954;2024-01-15T08:09:39;65544.69;;;5.52;56.31
54503;BME280;40411;50.090;21.954;2024-01-15T08:12:05;65480.59;;;5.88;55.29
54503;BME280;40411;50.090;21.954;2024-01-15T08:14:31;65555.50;;;5.57;56.82
54503;BME280;40411;50.090;21.954;2024-01-15T08:16:57;65500.22;;;5.58;56.23
54503;BME280;40411;50.090;21.954;2024-01-15T08:19:23;65522.34;;;5.46;56.22
54503;BME280;40411;50.090;21.954;2024-01-15T08:21:49;65560.09;;;5.28;56.27
54503;BME280;40411;50.090;21.954;2024-01-15T08:24:15;65507.19;;;5.55;55.88
54503;BME280;40411;50.090;21.954;2024-01-15T08:26:42;65503.88;;;5.48;56.45
54503;BME280;40411;50.090;21.954;2024-01-15T08:29:08;65540.28;;;5.27;56.78
54503;BME280;40411;50.090;21.954;2024-01-15T08:31:34;65527.44;;;5.06;57.58
54503;BME280;40411;50.090;21.954;2024-01-15T08:34:00;65500.50;;;5.45;57.33
54503;BME280;40411;50.090;21.954;2024-01-15T08:36:27;65519.81;;;5.29;56.52
54503;BME280;40411;50.090;21.954;2024-01-15T08:38:55;65512.31;;;4.99;57.38
54503;BME280;40411;50.090;21.954;2024-01-15T08:41:20;65512.41;;;5.67;55.04
54503;BME280;40411;50.090;21.954;2024-01-15T08:43:47;65485.22;;;5.87;54.78
54503;BME280;40411;50.090;21.954;2024-01-15T08:46:12;65512.47;;;5.79;54.11
54503;BME280;40411;50.090;21.954;2024-01-15T08:48:38;65522.66;;;5.60;55.39
54503;BME280;40411;50.090;21.954;2024-01-15T08:51:05;65496.03;;;5.52;55.72
54503;BME280;40411;50.090;21.954;2024-01-15T08:53:31;65521.94;;;5.80;54.57
54503;BME280;40411;50.090;21.954;2024-01-15T08:55:58;65516.31;;;6.15;53.73
54503;BME280;40411;50.090;21.954;2024-01-15T08:58:24;65571.31;;;5.59;55.03
54503;BME280;40411;50.090;21.954;2024-01-15T09:00:51;65497.13;;;5.98;54.58
54503;BME280;40411;50.090;21.954;2024-01-15T09:03:17;65484.56;;;6.31;52.85
54503;BME280;40411;50.090;21.954;2024-01-15T09:05:42;65504.28;;;7.12;50.96
54503;BME280;40411;50.090;21.954;2024-01-15T09:08:08;65488.25;;;6.60;51.96
54503;BME280;40411;50.090;21.954;2024-01-15T09:10:34;65484.41;;;6.52;52.42
54503;BME280;40411;50.090;21.954;2024-01-15T09:13:00;65465.78;;;7.06;51.50
54503;BME280;40411;50.090;21.954;2024-01-15T09:15:26;65459.03;;;7.00;50.74
54503;BME280;40411;50.090;21.954;2024-01-15T09:17:52;65530.88;;;6.61;51.62
54503;BME280;40411;50.090;21.954;2024-01-15T09:20:17;65500.31;;;6.62;51.56
54503;BME280;40411;50.090;21.954;2024-01-15T09:22:44;65502.41;;;6.45;51.71
54503;BME280;40411;50.090;21.954;2024-01-15T09:25:10;65468.84;;;6.87;51.44
54503;BME280;40411;50.090;21.954;2024-01-15T09:27:37;65457.66;;;6.96;51.22
54503;BME280;40411;50.090;21.954;2024-01-15T09:30:03;65446.19;;;7.73;49.71
54503;BME280;40411;50.090;21.954;2024-01-15T09:32:30;65464.66;;;6.81;50.45
54503;BME280;40411;50.090;21.954;2024-01-15T09:34:56;65482.28;;;7.04;51.63
54503;BME280;40411;50.090;21.954;2024-01-15T09:37:22;65492.81;;;6.36;52.64
54503;BME280;40411;50.090;21.954;2024-01-15T09:39:49;65440.50;;;6.90;51.39
54503;BME280;40411;50.090;21.954;2024-01-15T09:42:16;65493.78;;;6.82;51.47
54503;BME280;40411;50.090;21.954;2024-01-15T09:44:42;65443.41;;;7.47;50.26
54503;BME280;40411;50.090;21.954;2024-01-15T09:47:09;65466.34;;;7.30;49.42
54503;BME280;40411;50.090;21.954;2024-01-15T09:49:35;65522.00;;;6.84;50.77
54503;BME280;40411;50.090;21.954;2024-01-15T09:52:01;65462.41;;;7.26;50.29
54503;BME280;40411;50.090;21.954;2024-01-15T09:54:27;65475.41;;;6.91;51.26
54503;BME280;40411;50.090;21.954;2024-01-15T09:56:54;65486.06;;;6.54;51.78
54503;BME280;40411;50.090;21.954;2024-01-15T09:59:22;65427.38;;;7.18;50.30
54503;BME280;40411;50.090;21.954;2024-01-15T10:01:50;65409.44;;;8.05;49.13
54503;BME280;40411;50.090;21.954;2024-01-15T10:04:15;65330.41;;;7.81;48.00
54503;BME280;40411;50.090;21.954;2024-01-15T10:06:44;65143.59;;;10.04;44.18
54503;BME280;40411;50.090;21.954;2024-01-15T10:09:14;65048.91;;;11.45;40.08
54503;BME280;40411;50.090;21.954;2024-01-15T10:11:43;64990.31;;;11.89;39.30
54503;BME280;40411;50.090;21.954;2024-01-15T10:14:10;65004.22;;;12.55;38.03
54503;BME280;40411;50.090;21.954;2024-01-15T10:16:40;65271.47;;;10.45;40.10
54503;BME280;40411;50.090;21.954;2024-01-15T10:19:07;65356.47;;;9.84;41.81
54503;BME280;40411;50.090;21.954;2024-01-15T10:21:33;65453.16;;;8.55;44.24
54503;BME280;40411;50.090;21.954;2024-01-15T10:24:03;65437.72;;;8.69;45.11
54503;BME280;40411;50.090;21.954;2024-01-15T10:26:30;65462.28;;;8.39;46.24
54503;BME280;40411;50.090;21.954;2024-01-15T10:28:57;65411.84;;;8.83;45.18
54503;BME280;40411;50.090;21.954;2024-01-15T10:31:25;65394.72;;;9.03;44.61
54503;BME280;40411;50.090;21.954;2024-01-15T10:33:51;65291.09;;;9.04;44.74
54503;BME280;40411;50.090;21.954;2024-01-15T10:36:17;65276.28;;;10.40;42.10
54503;BME280;40411;50.090;21.954;2024-01-15T10:38:44;65413.66;;;8.80;43.52
54503;BME280;40411;50.090;21.954;2024-01-15T10:41:11;65370.47;;;9.19;44.08
54503;BME280;40411;50.090;21.954;2024-01-15T10:43:37;65482.81;;;8.60;44.17
54503;BME280;40411;50.090;21.954;2024-01-15T10:46:03;65515.38;;;8.21;45.72
54503;BME280;40411;50.090;21.954;2024-01-15T10:48:29;65471.13;;;8.33;45.89
54503;BME280;40411;50.090;21.954;2024-01-15T10:50:57;65423.38;;;8.84;45.00
54503;BME280;40411;50.090;21.954;2024-01-15T10:53:26;65511.88;;;7.45;48.18
54503;BME280;40411;50.090;21.954;2024-01-15T10:55:54;65520.53;;;6.85;49.97
54503;BME280;40411;50.090;21.954;2024-01-15T10:58:20;65493.44;;;6.84;50.19
54503;BME280;40411;50.090;21.954;2024-01-15T11:00:49;65565.63;;;6.55;51.38
54503;BME280;40411;50.090;21.954;2024-01-15T11:03:15;65515.94;;;7.32;49.95
54503;BME280;40411;50.090;21.954;2024-01-15T11:05:43;65513.44;;;7.04;50.57
54503;BME280;40411;50.090;21.954;2024-01-15T11:08:09;65453.88;;;7.66;50.10
54503;BME280;40411;50.090;21.954;2024-01-15T11:16:02;65476.56;;;7.81;48.75
54503;BME280;40411;50.090;21.954;2024-01-15T11:18:29;65453.75;;;8.13;48.85
54503;BME280;40411;50.090;21.954;2024-01-15T11:24:08;65487.13;;;8.07;48.04
54503;BME280;40411;50.090;21.954;2024-01-15T11:29:29;65462.72;;;7.48;50.49
54503;BME280;40411;50.090;21.954;2024-01-15T11:34:21;65511.44;;;7.16;52.02
54503;BME280;40411;50.090;21.954;2024-01-15T11:41:58;65512.66;;;7.13;50.22
54503;BME280;40411;50.090;21.954;2024-01-15T11:44:25;65516.50;;;7.09;50.31
54503;BME280;40411;50.090;21.954;2024-01-15T11:52:16;65466.22;;;7.34;50.11
54503;BME280;40411;50.090;21.954;2024-01-15T11:55:01;65484.41;;;7.46;49.44
54503;BME280;40411;50.090;21.954;2024-01-15T11:57:40;65505.88;;;6.83;50.79
54503;BME280;40411;50.090;21.954;2024-01-15T12:00:09;65532.06;;;6.86;50.78
54503;BME280;40411;50.090;21.954;2024-01-15T12:02:40;65493.56;;;7.26;49.60
54503;BME280;40411;50.090;21.954;2024-01-15T12:05:08;65486.91;;;6.92;51.45
54503;BME280;40411;50.090;21.954;2024-01-15T12:07:34;65522.03;;;7.07;51.19
54503;BME280;40411;50.090;21.954;2024-01-15T12:10:01;65520.41;;;6.66;51.60
54503;BME280;40411;50.090;21.954;2024-01-15T12:15:16;65532.50;;;6.79;50.42
54503;BME280;40411;50.090;21.954;2024-01-15T12:17:45;65494.69;;;6.92;50.81
54503;BME280;40411;50.090;21.954;2024-01-15T12:20:11;65466.13;;;7.15;50.74
54503;BME280;40411;50.090;21.954;2024-01-15T12:22:38;65534.31;;;6.88;50.30
54503;BME280;40411;50.090;21.954;2024-01-15T12:25:04;65502.38;;;6.97;50.77
54503;BME280;40411;50.090;21.954;2024-01-15T12:27:30;65501.47;;;7.57;49.39
54503;BME280;40411;50.090;21.954;2024-01-15T12:29:58;65453.75;;;7.70;49.11
54503;BME280;40411;50.090;21.954;2024-01-15T12:32:24;65434.47;;;7.88;49.07
54503;BME280;40411;50.090;21.954;2024-01-15T12:34:51;65497.06;;;7.36;49.24
54503;BME280;40411;50.090;21.954;2024-01-15T12:37:20;65458.78;;;7.98;48.38
54503;BME280;40411;50.090;21.954;2024-01-15T12:39:46;65514.25;;;7.19;49.11
54503;BME280;40411;50.090;21.954;2024-01-15T12:42:16;65507.91;;;7.06;49.98
54503;BME280;40411;50.090;21.954;2024-01-15T12:44:44;65494.38;;;7.18;49.79
54503;BME280;40411;50.090;21.954;2024-01-15T12:47:10;65503.63;;;7.40;48.94
54503;BME280;40411;50.090;21.954;2024-01-15T12:49:37;65455.72;;;7.93;48.50
54503;BME280;40411;50.090;21.954;2024-01-15T12:52:03;65408.53;;;8.07;48.55
54503;BME280;40411;50.090;21.954;2024-01-15T12:54:30;65409.69;;;8.27;47.54
54503;BME280;40411;50.090;21.954;2024-01-15T12:56:56;65470.28;;;7.57;49.08
54503;BME280;40411;50.090;21.954;2024-01-15T12:59:22;65508.47;;;7.19;48.95
54503;BME280;40411;50.090;21.954;2024-01-15T13:01:48;65482.28;;;7.28;49.86
54503;BME280;40411;50.090;21.954;2024-01-15T13:04:24;65495.38;;;7.35;48.64
54503;BME280;40411;50.090;21.954;2024-01-15T13:06:50;65454.00;;;8.03;47.91
54503;BME280;40411;50.090;21.954;2024-01-15T13:09:17;65521.59;;;7.26;49.63
54503;BME280;40411;50.090;21.954;2024-01-15T13:11:44;65465.53;;;7.62;49.75
54503;BME280;40411;50.090;21.954;2024-01-15T13:14:10;65490.16;;;7.35;49.87
54503;BME280;40411;50.090;21.954;2024-01-15T13:16:36;65444.25;;;7.69;49.39
54503;BME280;40411;50.090;21.954;2024-01-15T13:19:03;65490.53;;;7.33;49.85
54503;BME280;40411;50.090;21.954;2024-01-15T13:21:30;65460.22;;;7.43;49.50
54503;BME280;40411;50.090;21.954;2024-01-15T13:23:56;65537.41;;;7.28;50.16